4XARY LLIB-LLKS
Flight info
| Callsign | 4XARY |
|---|---|
| Flight time | N/A |
| Altitude | 1700 |
| Route | CVFR T/A |
| Aircraft | C152/L-VD/A |
Departure
| Time | 2026-05-01 12:18 |
|---|---|
| Airport | Rosh Pina Airport (LLIB) |
Arrival
| Time | N/A |
|---|---|
| Airport | Kiryat Shmona Airport (LLKS) |
| Time | Latitude | Longitude | Altitude | Speed | Heading |
|---|---|---|---|---|---|
| 2026-05-01 12:07 | 32.97758 | 35.57250 | 902 ft | 0 kts | 97° |
| 2026-05-01 12:11 | 32.97783 | 35.57286 | 901 ft | 8 kts | 54° |
| 2026-05-01 12:11 | 32.97805 | 35.57328 | 899 ft | 0 kts | 56° |
| 2026-05-01 12:16 | 32.97806 | 35.57330 | 899 ft | 2 kts | 55° |
| 2026-05-01 12:17 | 32.97850 | 35.57360 | 894 ft | 8 kts | 323° |
| 2026-05-01 12:17 | 32.97968 | 35.57279 | 895 ft | 40 kts | 331° |
| 2026-05-01 12:17 | 32.98323 | 35.57038 | 922 ft | 71 kts | 329° |
| 2026-05-01 12:17 | 32.98752 | 35.56768 | 1090 ft | 70 kts | 334° |
| 2026-05-01 12:18 | 32.99174 | 35.56486 | 1250 ft | 72 kts | 322° |
| 2026-05-01 12:18 | 32.99635 | 35.56196 | 1350 ft | 76 kts | 343° |
| 2026-05-01 12:18 | 33.00167 | 35.56257 | 1489 ft | 77 kts | 17° |
| 2026-05-01 12:18 | 33.00680 | 35.56506 | 1626 ft | 77 kts | 22° |
| 2026-05-01 12:19 | 33.01157 | 35.56769 | 1743 ft | 81 kts | 34° |
| 2026-05-01 12:19 | 33.01614 | 35.57137 | 1927 ft | 76 kts | 26° |
| 2026-05-01 12:19 | 33.02145 | 35.57284 | 1989 ft | 84 kts | 20° |
| 2026-05-01 12:19 | 33.02588 | 35.57827 | 1935 ft | 97 kts | 54° |
| 2026-05-01 12:20 | 33.02951 | 35.58507 | 1962 ft | 97 kts | 60° |
| 2026-05-01 12:20 | 33.03288 | 35.59195 | 2011 ft | 95 kts | 56° |
| 2026-05-01 12:20 | 33.03719 | 35.59794 | 2052 ft | 96 kts | 39° |
| 2026-05-01 12:20 | 33.04180 | 35.60356 | 2051 ft | 96 kts | 58° |
| 2026-05-01 12:21 | 33.04493 | 35.61041 | 2100 ft | 97 kts | 62° |